sensor_id;sensor_type;location;lat;lon;timestamp;P1;durP1;ratioP1;P2;durP2;ratioP2
24681;SDS011;12802;53.390;-2.328;2022-08-21T00:01:26;7.05;;;1.55;;
24681;SDS011;12802;53.390;-2.328;2022-08-21T00:06:20;6.90;;;1.80;;
24681;SDS011;12802;53.390;-2.328;2022-08-21T00:08:47;8.65;;;2.03;;
24681;SDS011;12802;53.390;-2.328;2022-08-21T00:11:13;5.78;;;2.22;;
24681;SDS011;12802;53.390;-2.328;2022-08-21T00:16:15;8.77;;;2.08;;
24681;SDS011;12802;53.390;-2.328;2022-08-21T00:18:41;5.25;;;1.35;;
24681;SDS011;12802;53.390;-2.328;2022-08-21T00:21:06;6.30;;;1.75;;
24681;SDS011;12802;53.390;-2.328;2022-08-21T00:23:33;5.53;;;1.75;;
24681;SDS011;12802;53.390;-2.328;2022-08-21T00:25:59;4.90;;;1.10;;
24681;SDS011;12802;53.390;-2.328;2022-08-21T00:28:25;3.60;;;1.48;;
24681;SDS011;12802;53.390;-2.328;2022-08-21T00:30:51;4.43;;;1.42;;
24681;SDS011;12802;53.390;-2.328;2022-08-21T00:33:16;3.40;;;1.70;;
24681;SDS011;12802;53.390;-2.328;2022-08-21T00:35:42;3.47;;;0.77;;
24681;SDS011;12802;53.390;-2.328;2022-08-21T00:38:09;6.20;;;1.70;;
24681;SDS011;12802;53.390;-2.328;2022-08-21T00:40:37;3.58;;;1.77;;
24681;SDS011;12802;53.390;-2.328;2022-08-21T00:43:08;1.98;;;1.02;;
24681;SDS011;12802;53.390;-2.328;2022-08-21T00:45:35;2.55;;;0.90;;
24681;SDS011;12802;53.390;-2.328;2022-08-21T00:48:01;3.65;;;1.77;;
24681;SDS011;12802;53.390;-2.328;2022-08-21T00:50:28;3.17;;;1.67;;
24681;SDS011;12802;53.390;-2.328;2022-08-21T00:52:57;7.53;;;1.50;;
24681;SDS011;12802;53.390;-2.328;2022-08-21T00:55:25;2.60;;;1.48;;
24681;SDS011;12802;53.390;-2.328;2022-08-21T00:57:54;3.25;;;1.30;;
24681;SDS011;12802;53.390;-2.328;2022-08-21T01:00:23;3.83;;;1.53;;
24681;SDS011;12802;53.390;-2.328;2022-08-21T01:02:53;6.00;;;1.77;;
24681;SDS011;12802;53.390;-2.328;2022-08-21T01:05:20;4.10;;;1.88;;
24681;SDS011;12802;53.390;-2.328;2022-08-21T01:07:46;3.60;;;1.42;;
24681;SDS011;12802;53.390;-2.328;2022-08-21T01:10:13;8.13;;;2.00;;
24681;SDS011;12802;53.390;-2.328;2022-08-21T01:12:39;6.82;;;1.45;;
24681;SDS011;12802;53.390;-2.328;2022-08-21T01:15:06;5.70;;;1.60;;
24681;SDS011;12802;53.390;-2.328;2022-08-21T01:17:34;8.30;;;1.55;;
24681;SDS011;12802;53.390;-2.328;2022-08-21T01:20:03;3.42;;;1.77;;
24681;SDS011;12802;53.390;-2.328;2022-08-21T01:22:31;9.50;;;2.45;;
24681;SDS011;12802;53.390;-2.328;2022-08-21T01:24:57;3.15;;;1.60;;
24681;SDS011;12802;53.390;-2.328;2022-08-21T01:27:23;10.20;;;2.70;;
24681;SDS011;12802;53.390;-2.328;2022-08-21T01:30:01;4.25;;;1.42;;
24681;SDS011;12802;53.390;-2.328;2022-08-21T01:32:36;4.00;;;1.90;;
24681;SDS011;12802;53.390;-2.328;2022-08-21T01:35:02;2.03;;;1.52;;
24681;SDS011;12802;53.390;-2.328;2022-08-21T01:37:29;3.00;;;1.90;;
24681;SDS011;12802;53.390;-2.328;2022-08-21T01:39:55;4.40;;;1.83;;
24681;SDS011;12802;53.390;-2.328;2022-08-21T01:42:20;5.28;;;1.83;;
24681;SDS011;12802;53.390;-2.328;2022-08-21T01:44:46;10.27;;;1.60;;
24681;SDS011;12802;53.390;-2.328;2022-08-21T01:47:13;8.60;;;1.85;;
24681;SDS011;12802;53.390;-2.328;2022-08-21T01:49:40;6.00;;;1.75;;
24681;SDS011;12802;53.390;-2.328;2022-08-21T01:52:07;4.75;;;1.65;;
24681;SDS011;12802;53.390;-2.328;2022-08-21T01:54:34;13.90;;;1.80;;
24681;SDS011;12802;53.390;-2.328;2022-08-21T01:57:00;2.65;;;1.75;;
24681;SDS011;12802;53.390;-2.328;2022-08-21T01:59:27;5.70;;;1.60;;
24681;SDS011;12802;53.390;-2.328;2022-08-21T02:01:53;3.33;;;1.77;;
24681;SDS011;12802;53.390;-2.328;2022-08-21T02:04:20;11.52;;;2.08;;
24681;SDS011;12802;53.390;-2.328;2022-08-21T02:06:46;6.70;;;1.63;;
24681;SDS011;12802;53.390;-2.328;2022-08-21T02:09:12;6.18;;;1.95;;
24681;SDS011;12802;53.390;-2.328;2022-08-21T02:11:39;7.32;;;1.52;;
24681;SDS011;12802;53.390;-2.328;2022-08-21T02:14:06;9.25;;;1.88;;
24681;SDS011;12802;53.390;-2.328;2022-08-21T02:16:37;7.10;;;1.80;;
24681;SDS011;12802;53.390;-2.328;2022-08-21T02:19:03;3.05;;;1.48;;
24681;SDS011;12802;53.390;-2.328;2022-08-21T02:21:30;5.00;;;1.20;;
24681;SDS011;12802;53.390;-2.328;2022-08-21T02:23:56;10.40;;;1.90;;
24681;SDS011;12802;53.390;-2.328;2022-08-21T02:26:22;7.00;;;1.85;;
24681;SDS011;12802;53.390;-2.328;2022-08-21T02:28:48;5.53;;;2.35;;
24681;SDS011;12802;53.390;-2.328;2022-08-21T02:31:14;3.63;;;1.70;;
24681;SDS011;12802;53.390;-2.328;2022-08-21T02:33:40;7.93;;;2.10;;
24681;SDS011;12802;53.390;-2.328;2022-08-21T02:36:06;9.27;;;2.58;;
24681;SDS011;12802;53.390;-2.328;2022-08-21T02:38:34;6.28;;;1.73;;
24681;SDS011;12802;53.390;-2.328;2022-08-21T02:41:05;5.30;;;1.73;;
24681;SDS011;12802;53.390;-2.328;2022-08-21T02:43:33;9.48;;;2.67;;
24681;SDS011;12802;53.390;-2.328;2022-08-21T02:45:59;10.43;;;2.35;;
24681;SDS011;12802;53.390;-2.328;2022-08-21T02:48:26;6.50;;;2.63;;
24681;SDS011;12802;53.390;-2.328;2022-08-21T02:50:55;9.43;;;2.87;;
24681;SDS011;12802;53.390;-2.328;2022-08-21T02:53:21;6.45;;;2.08;;
24681;SDS011;12802;53.390;-2.328;2022-08-21T02:55:49;8.65;;;2.40;;
24681;SDS011;12802;53.390;-2.328;2022-08-21T02:58:18;11.45;;;2.53;;
24681;SDS011;12802;53.390;-2.328;2022-08-21T03:00:46;4.95;;;1.92;;
24681;SDS011;12802;53.390;-2.328;2022-08-21T03:03:12;3.53;;;2.17;;
24681;SDS011;12802;53.390;-2.328;2022-08-21T03:05:39;4.70;;;2.17;;
24681;SDS011;12802;53.390;-2.328;2022-08-21T03:08:07;10.13;;;2.60;;
24681;SDS011;12802;53.390;-2.328;2022-08-21T03:13:01;6.95;;;1.75;;
24681;SDS011;12802;53.390;-2.328;2022-08-21T03:15:28;5.00;;;2.03;;
24681;SDS011;12802;53.390;-2.328;2022-08-21T03:17:55;4.80;;;2.20;;
24681;SDS011;12802;53.390;-2.328;2022-08-21T03:20:22;8.45;;;2.17;;
24681;SDS011;12802;53.390;-2.328;2022-08-21T03:22:51;2.22;;;1.75;;
24681;SDS011;12802;53.390;-2.328;2022-08-21T03:25:19;5.53;;;2.35;;
24681;SDS011;12802;53.390;-2.328;2022-08-21T03:27:48;5.15;;;2.28;;
24681;SDS011;12802;53.390;-2.328;2022-08-21T03:30:16;11.07;;;2.47;;
24681;SDS011;12802;53.390;-2.328;2022-08-21T03:35:11;4.28;;;2.03;;
24681;SDS011;12802;53.390;-2.328;2022-08-21T03:37:38;9.32;;;2.72;;
24681;SDS011;12802;53.390;-2.328;2022-08-21T03:40:05;5.03;;;2.40;;
24681;SDS011;12802;53.390;-2.328;2022-08-21T03:42:32;7.30;;;2.35;;
24681;SDS011;12802;53.390;-2.328;2022-08-21T03:44:58;7.32;;;2.55;;
24681;SDS011;12802;53.390;-2.328;2022-08-21T03:47:24;10.98;;;2.22;;
24681;SDS011;12802;53.390;-2.328;2022-08-21T03:49:50;4.15;;;2.10;;
24681;SDS011;12802;53.390;-2.328;2022-08-21T03:52:16;5.20;;;2.58;;
24681;SDS011;12802;53.390;-2.328;2022-08-21T03:54:42;7.00;;;2.00;;
24681;SDS011;12802;53.390;-2.328;2022-08-21T03:57:09;6.78;;;1.85;;
24681;SDS011;12802;53.390;-2.328;2022-08-21T03:59:36;9.73;;;2.38;;
24681;SDS011;12802;53.390;-2.328;2022-08-21T04:02:04;2.30;;;1.35;;
24681;SDS011;12802;53.390;-2.328;2022-08-21T04:04:31;9.55;;;1.75;;
24681;SDS011;12802;53.390;-2.328;2022-08-21T04:06:58;5.57;;;2.92;;
24681;SDS011;12802;53.390;-2.328;2022-08-21T04:09:24;4.30;;;2.33;;
24681;SDS011;12802;53.390;-2.328;2022-08-21T04:11:51;9.75;;;2.40;;
24681;SDS011;12802;53.390;-2.328;2022-08-21T04:14:17;4.78;;;1.98;;
24681;SDS011;12802;53.390;-2.328;2022-08-21T04:16:43;5.28;;;2.40;;
24681;SDS011;12802;53.390;-2.328;2022-08-21T04:19:10;5.20;;;1.90;;
24681;SDS011;12802;53.390;-2.328;2022-08-21T04:21:38;2.58;;;1.70;;
24681;SDS011;12802;53.390;-2.328;2022-08-21T04:24:05;11.35;;;2.17;;
24681;SDS011;12802;53.390;-2.328;2022-08-21T04:26:33;5.80;;;2.55;;
24681;SDS011;12802;53.390;-2.328;2022-08-21T04:29:00;4.30;;;2.35;;
24681;SDS011;12802;53.390;-2.328;2022-08-21T04:31:26;16.67;;;2.85;;
24681;SDS011;12802;53.390;-2.328;2022-08-21T04:33:53;8.68;;;3.00;;
24681;SDS011;12802;53.390;-2.328;2022-08-21T04:36:20;6.70;;;2.40;;
24681;SDS011;12802;53.390;-2.328;2022-08-21T04:38:45;3.72;;;2.03;;
24681;SDS011;12802;53.390;-2.328;2022-08-21T04:41:11;9.40;;;1.90;;
24681;SDS011;12802;53.390;-2.328;2022-08-21T04:43:37;5.50;;;2.63;;
24681;SDS011;12802;53.390;-2.328;2022-08-21T04:46:04;17.95;;;2.42;;
24681;SDS011;12802;53.390;-2.328;2022-08-21T04:48:31;12.70;;;2.15;;
24681;SDS011;12802;53.390;-2.328;2022-08-21T04:51:13;16.42;;;2.58;;
24681;SDS011;12802;53.390;-2.328;2022-08-21T04:56:14;5.55;;;2.65;;
24681;SDS011;12802;53.390;-2.328;2022-08-21T04:58:45;4.25;;;2.90;;
24681;SDS011;12802;53.390;-2.328;2022-08-21T05:01:15;6.65;;;2.22;;
24681;SDS011;12802;53.390;-2.328;2022-08-21T05:03:46;9.10;;;2.65;;
24681;SDS011;12802;53.390;-2.328;2022-08-21T05:06:14;6.20;;;2.45;;
24681;SDS011;12802;53.390;-2.328;2022-08-21T05:08:42;3.63;;;2.15;;
24681;SDS011;12802;53.390;-2.328;2022-08-21T05:11:11;4.53;;;2.63;;
24681;SDS011;12802;53.390;-2.328;2022-08-21T05:13:38;5.82;;;2.40;;
24681;SDS011;12802;53.390;-2.328;2022-08-21T05:16:06;8.57;;;2.35;;
24681;SDS011;12802;53.390;-2.328;2022-08-21T05:18:32;6.65;;;3.03;;
24681;SDS011;12802;53.390;-2.328;2022-08-21T05:20:58;5.85;;;2.13;;
24681;SDS011;12802;53.390;-2.328;2022-08-21T05:23:24;6.32;;;3.00;;
24681;SDS011;12802;53.390;-2.328;2022-08-21T05:25:51;4.43;;;1.85;;
24681;SDS011;12802;53.390;-2.328;2022-08-21T05:28:17;7.47;;;2.70;;
24681;SDS011;12802;53.390;-2.328;2022-08-21T05:30:43;6.57;;;2.35;;
24681;SDS011;12802;53.390;-2.328;2022-08-21T05:33:10;7.72;;;2.40;;
24681;SDS011;12802;53.390;-2.328;2022-08-21T05:35:37;7.30;;;2.15;;
24681;SDS011;12802;53.390;-2.328;2022-08-21T05:38:03;4.05;;;1.98;;
24681;SDS011;12802;53.390;-2.328;2022-08-21T05:40:30;10.48;;;2.40;;
24681;SDS011;12802;53.390;-2.328;2022-08-21T05:42:57;1.83;;;1.52;;
24681;SDS011;12802;53.390;-2.328;2022-08-21T05:45:25;9.25;;;2.53;;
24681;SDS011;12802;53.390;-2.328;2022-08-21T05:47:52;9.45;;;2.50;;
24681;SDS011;12802;53.390;-2.328;2022-08-21T05:50:19;4.25;;;1.65;;
24681;SDS011;12802;53.390;-2.328;2022-08-21T05:52:45;9.13;;;2.05;;
24681;SDS011;12802;53.390;-2.328;2022-08-21T05:55:11;5.30;;;2.33;;
24681;SDS011;12802;53.390;-2.328;2022-08-21T05:57:40;7.72;;;2.38;;
24681;SDS011;12802;53.390;-2.328;2022-08-21T06:00:07;7.88;;;2.10;;
24681;SDS011;12802;53.390;-2.328;2022-08-21T06:02:40;6.90;;;2.22;;
24681;SDS011;12802;53.390;-2.328;2022-08-21T06:05:06;4.82;;;2.35;;
24681;SDS011;12802;53.390;-2.328;2022-08-21T06:07:32;2.58;;;1.70;;
24681;SDS011;12802;53.390;-2.328;2022-08-21T06:09:58;7.28;;;1.95;;
24681;SDS011;12802;53.390;-2.328;2022-08-21T06:12:24;7.03;;;1.90;;
24681;SDS011;12802;53.390;-2.328;2022-08-21T06:14:50;3.90;;;1.85;;
24681;SDS011;12802;53.390;-2.328;2022-08-21T06:17:17;7.40;;;2.03;;
24681;SDS011;12802;53.390;-2.328;2022-08-21T06:19:43;7.35;;;1.98;;
24681;SDS011;12802;53.390;-2.328;2022-08-21T06:22:09;9.23;;;1.40;;
24681;SDS011;12802;53.390;-2.328;2022-08-21T06:24:35;3.10;;;1.50;;
24681;SDS011;12802;53.390;-2.328;2022-08-21T06:27:07;3.05;;;1.30;;
24681;SDS011;12802;53.390;-2.328;2022-08-21T06:29:34;4.38;;;1.58;;
24681;SDS011;12802;53.390;-2.328;2022-08-21T06:32:00;3.13;;;1.45;;
24681;SDS011;12802;53.390;-2.328;2022-08-21T06:34:27;7.15;;;2.40;;
24681;SDS011;12802;53.390;-2.328;2022-08-21T06:36:53;5.93;;;2.25;;
24681;SDS011;12802;53.390;-2.328;2022-08-21T06:39:19;4.65;;;1.52;;
24681;SDS011;12802;53.390;-2.328;2022-08-21T06:41:45;5.47;;;1.90;;
24681;SDS011;12802;53.390;-2.328;2022-08-21T06:44:11;1.92;;;1.25;;
24681;SDS011;12802;53.390;-2.328;2022-08-21T06:46:37;3.10;;;1.63;;
24681;SDS011;12802;53.390;-2.328;2022-08-21T06:49:03;6.93;;;1.85;;
24681;SDS011;12802;53.390;-2.328;2022-08-21T06:51:29;5.22;;;1.50;;
24681;SDS011;12802;53.390;-2.328;2022-08-21T06:53:54;8.63;;;2.38;;
24681;SDS011;12802;53.390;-2.328;2022-08-21T06:56:20;10.20;;;1.95;;
24681;SDS011;12802;53.390;-2.328;2022-08-21T06:58:46;4.60;;;2.20;;
24681;SDS011;12802;53.390;-2.328;2022-08-21T07:01:12;4.38;;;1.63;;
24681;SDS011;12802;53.390;-2.328;2022-08-21T07:03:40;7.18;;;1.20;;
24681;SDS011;12802;53.390;-2.328;2022-08-21T07:06:07;6.60;;;1.23;;
24681;SDS011;12802;53.390;-2.328;2022-08-21T07:08:34;3.95;;;1.15;;
24681;SDS011;12802;53.390;-2.328;2022-08-21T07:11:03;5.07;;;1.42;;
24681;SDS011;12802;53.390;-2.328;2022-08-21T07:13:34;5.40;;;1.70;;
24681;SDS011;12802;53.390;-2.328;2022-08-21T07:16:00;5.68;;;1.85;;
24681;SDS011;12802;53.390;-2.328;2022-08-21T07:18:26;7.20;;;1.67;;
24681;SDS011;12802;53.390;-2.328;2022-08-21T07:20:52;8.32;;;1.80;;
24681;SDS011;12802;53.390;-2.328;2022-08-21T07:23:23;10.90;;;2.25;;
24681;SDS011;12802;53.390;-2.328;2022-08-21T07:25:53;5.95;;;1.90;;
24681;SDS011;12802;53.390;-2.328;2022-08-21T07:28:19;13.57;;;1.60;;
24681;SDS011;12802;53.390;-2.328;2022-08-21T07:30:46;9.13;;;1.55;;
24681;SDS011;12802;53.390;-2.328;2022-08-21T07:33:17;4.15;;;1.60;;
24681;SDS011;12802;53.390;-2.328;2022-08-21T07:35:43;9.70;;;1.92;;
24681;SDS011;12802;53.390;-2.328;2022-08-21T07:38:09;12.68;;;2.00;;
24681;SDS011;12802;53.390;-2.328;2022-08-21T07:40:35;14.55;;;1.80;;
24681;SDS011;12802;53.390;-2.328;2022-08-21T07:43:01;8.13;;;2.50;;
24681;SDS011;12802;53.390;-2.328;2022-08-21T07:45:28;13.18;;;1.83;;
24681;SDS011;12802;53.390;-2.328;2022-08-21T07:47:54;0.75;;;0.73;;
24681;SDS011;12802;53.390;-2.328;2022-08-21T07:50:20;5.75;;;1.33;;
24681;SDS011;12802;53.390;-2.328;2022-08-21T07:52:46;5.93;;;1.90;;
24681;SDS011;12802;53.390;-2.328;2022-08-21T07:55:13;3.45;;;1.50;;
24681;SDS011;12802;53.390;-2.328;2022-08-21T07:57:45;4.15;;;1.30;;
24681;SDS011;12802;53.390;-2.328;2022-08-21T08:02:39;4.63;;;1.40;;
24681;SDS011;12802;53.390;-2.328;2022-08-21T08:05:07;5.30;;;1.13;;
24681;SDS011;12802;53.390;-2.328;2022-08-21T08:07:34;4.32;;;1.33;;
24681;SDS011;12802;53.390;-2.328;2022-08-21T08:10:01;7.75;;;1.30;;
24681;SDS011;12802;53.390;-2.328;2022-08-21T08:12:27;5.45;;;1.10;;
24681;SDS011;12802;53.390;-2.328;2022-08-21T08:14:57;10.88;;;1.65;;
24681;SDS011;12802;53.390;-2.328;2022-08-21T08:17:24;3.28;;;1.27;;
24681;SDS011;12802;53.390;-2.328;2022-08-21T08:19:51;6.78;;;1.52;;
24681;SDS011;12802;53.390;-2.328;2022-08-21T08:22:19;11.65;;;1.48;;
24681;SDS011;12802;53.390;-2.328;2022-08-21T08:24:49;4.00;;;1.50;;
24681;SDS011;12802;53.390;-2.328;2022-08-21T08:27:16;3.25;;;1.33;;
24681;SDS011;12802;53.390;-2.328;2022-08-21T08:29:43;11.27;;;1.20;;
24681;SDS011;12802;53.390;-2.328;2022-08-21T08:32:09;2.88;;;1.33;;
24681;SDS011;12802;53.390;-2.328;2022-08-21T08:34:36;9.50;;;1.33;;
24681;SDS011;12802;53.390;-2.328;2022-08-21T08:37:04;9.52;;;0.88;;
24681;SDS011;12802;53.390;-2.328;2022-08-21T08:39:32;5.60;;;1.30;;
24681;SDS011;12802;53.390;-2.328;2022-08-21T08:44:32;7.07;;;1.20;;
24681;SDS011;12802;53.390;-2.328;2022-08-21T08:46:59;3.10;;;1.10;;
24681;SDS011;12802;53.390;-2.328;2022-08-21T08:52:21;13.05;;;1.95;;
24681;SDS011;12802;53.390;-2.328;2022-08-21T08:54:58;9.02;;;1.30;;
24681;SDS011;12802;53.390;-2.328;2022-08-21T08:57:26;5.82;;;1.48;;
24681;SDS011;12802;53.390;-2.328;2022-08-21T08:59:58;5.47;;;0.85;;
24681;SDS011;12802;53.390;-2.328;2022-08-21T09:02:25;3.55;;;1.23;;
24681;SDS011;12802;53.390;-2.328;2022-08-21T09:04:55;10.48;;;1.30;;
24681;SDS011;12802;53.390;-2.328;2022-08-21T09:12:39;5.55;;;1.55;;
24681;SDS011;12802;53.390;-2.328;2022-08-21T09:15:12;3.45;;;0.93;;
24681;SDS011;12802;53.390;-2.328;2022-08-21T09:21:39;7.03;;;0.98;;
24681;SDS011;12802;53.390;-2.328;2022-08-21T09:26:29;9.68;;;1.52;;
24681;SDS011;12802;53.390;-2.328;2022-08-21T09:29:01;4.35;;;1.58;;
24681;SDS011;12802;53.390;-2.328;2022-08-21T09:31:32;3.92;;;0.80;;
24681;SDS011;12802;53.390;-2.328;2022-08-21T09:34:00;3.65;;;1.00;;
24681;SDS011;12802;53.390;-2.328;2022-08-21T09:36:36;5.87;;;1.13;;
24681;SDS011;12802;53.390;-2.328;2022-08-21T09:39:06;2.30;;;0.77;;
24681;SDS011;12802;53.390;-2.328;2022-08-21T09:41:34;9.80;;;1.35;;
24681;SDS011;12802;53.390;-2.328;2022-08-21T09:44:05;11.40;;;1.40;;
24681;SDS011;12802;53.390;-2.328;2022-08-21T09:46:33;5.40;;;1.63;;
24681;SDS011;12802;53.390;-2.328;2022-08-21T09:49:00;6.10;;;0.95;;
24681;SDS011;12802;53.390;-2.328;2022-08-21T09:51:29;5.70;;;1.27;;
24681;SDS011;12802;53.390;-2.328;2022-08-21T09:56:36;2.47;;;1.17;;
24681;SDS011;12802;53.390;-2.328;2022-08-21T09:59:32;3.05;;;1.20;;
24681;SDS011;12802;53.390;-2.328;2022-08-21T10:02:00;8.35;;;1.38;;
24681;SDS011;12802;53.390;-2.328;2022-08-21T10:04:49;3.85;;;0.98;;
24681;SDS011;12802;53.390;-2.328;2022-08-21T10:07:23;1.70;;;1.00;;
24681;SDS011;12802;53.390;-2.328;2022-08-21T10:10:26;9.45;;;1.35;;
24681;SDS011;12802;53.390;-2.328;2022-08-21T10:15:27;8.23;;;1.35;;
24681;SDS011;12802;53.390;-2.328;2022-08-21T10:21:22;3.15;;;1.38;;
24681;SDS011;12802;53.390;-2.328;2022-08-21T10:24:01;12.88;;;1.60;;
24681;SDS011;12802;53.390;-2.328;2022-08-21T10:31:51;2.47;;;0.90;;
24681;SDS011;12802;53.390;-2.328;2022-08-21T10:34:24;2.97;;;0.80;;
24681;SDS011;12802;53.390;-2.328;2022-08-21T10:58:40;9.00;;;1.00;;
24681;SDS011;12802;53.390;-2.328;2022-08-21T11:01:15;3.30;;;0.95;;
24681;SDS011;12802;53.390;-2.328;2022-08-21T11:07:06;2.35;;;0.82;;
24681;SDS011;12802;53.390;-2.328;2022-08-21T11:09:40;6.40;;;1.25;;
24681;SDS011;12802;53.390;-2.328;2022-08-21T11:14:56;7.38;;;1.38;;
24681;SDS011;12802;53.390;-2.328;2022-08-21T11:17:36;4.60;;;1.10;;
24681;SDS011;12802;53.390;-2.328;2022-08-21T11:20:24;1.27;;;0.43;;
24681;SDS011;12802;53.390;-2.328;2022-08-21T11:23:16;4.35;;;1.55;;
24681;SDS011;12802;53.390;-2.328;2022-08-21T11:26:03;2.42;;;1.23;;
24681;SDS011;12802;53.390;-2.328;2022-08-21T11:28:41;5.65;;;1.20;;
24681;SDS011;12802;53.390;-2.328;2022-08-21T11:34:04;1.48;;;0.60;;
24681;SDS011;12802;53.390;-2.328;2022-08-21T11:45:27;7.37;;;0.90;;
24681;SDS011;12802;53.390;-2.328;2022-08-21T11:51:00;5.93;;;0.98;;
24681;SDS011;12802;53.390;-2.328;2022-08-21T11:53:34;8.02;;;0.95;;
24681;SDS011;12802;53.390;-2.328;2022-08-21T11:56:17;5.10;;;1.25;;
24681;SDS011;12802;53.390;-2.328;2022-08-21T11:59:45;3.55;;;0.80;;
24681;SDS011;12802;53.390;-2.328;2022-08-21T12:02:00;3.53;;;1.00;;
24681;SDS011;12802;53.390;-2.328;2022-08-21T12:04:34;4.30;;;1.15;;
24681;SDS011;12802;53.390;-2.328;2022-08-21T12:07:11;2.53;;;0.77;;
24681;SDS011;12802;53.390;-2.328;2022-08-21T12:09:51;2.92;;;0.80;;
24681;SDS011;12802;53.390;-2.328;2022-08-21T12:12:27;5.13;;;1.00;;
24681;SDS011;12802;53.390;-2.328;2022-08-21T12:17:51;2.97;;;1.10;;
24681;SDS011;12802;53.390;-2.328;2022-08-21T12:20:32;3.22;;;0.93;;
24681;SDS011;12802;53.390;-2.328;2022-08-21T12:25:41;2.22;;;0.75;;
24681;SDS011;12802;53.390;-2.328;2022-08-21T12:28:10;2.33;;;1.02;;
24681;SDS011;12802;53.390;-2.328;2022-08-21T12:30:41;3.88;;;1.25;;
24681;SDS011;12802;53.390;-2.328;2022-08-21T12:33:20;3.00;;;0.70;;
24681;SDS011;12802;53.390;-2.328;2022-08-21T12:35:48;3.28;;;1.15;;
24681;SDS011;12802;53.390;-2.328;2022-08-21T12:40:43;8.45;;;1.05;;
24681;SDS011;12802;53.390;-2.328;2022-08-21T12:46:00;2.05;;;0.85;;
24681;SDS011;12802;53.390;-2.328;2022-08-21T12:48:31;6.23;;;1.27;;
24681;SDS011;12802;53.390;-2.328;2022-08-21T12:51:09;5.57;;;1.23;;
24681;SDS011;12802;53.390;-2.328;2022-08-21T12:53:44;1.27;;;0.80;;
24681;SDS011;12802;53.390;-2.328;2022-08-21T12:56:17;1.80;;;1.02;;
24681;SDS011;12802;53.390;-2.328;2022-08-21T12:58:50;6.32;;;1.15;;
24681;SDS011;12802;53.390;-2.328;2022-08-21T13:04:17;2.58;;;0.65;;
24681;SDS011;12802;53.390;-2.328;2022-08-21T13:06:49;3.20;;;1.08;;
24681;SDS011;12802;53.390;-2.328;2022-08-21T13:09:18;3.35;;;0.82;;
24681;SDS011;12802;53.390;-2.328;2022-08-21T13:11:48;2.45;;;0.50;;
24681;SDS011;12802;53.390;-2.328;2022-08-21T13:16:56;1.38;;;0.90;;
24681;SDS011;12802;53.390;-2.328;2022-08-21T13:19:23;12.02;;;0.80;;
24681;SDS011;12802;53.390;-2.328;2022-08-21T13:21:51;1.55;;;0.65;;
24681;SDS011;12802;53.390;-2.328;2022-08-21T13:24:26;4.55;;;0.93;;
24681;SDS011;12802;53.390;-2.328;2022-08-21T13:26:54;1.75;;;0.75;;
24681;SDS011;12802;53.390;-2.328;2022-08-21T13:29:22;1.35;;;0.68;;
24681;SDS011;12802;53.390;-2.328;2022-08-21T13:31:53;5.10;;;1.23;;
24681;SDS011;12802;53.390;-2.328;2022-08-21T13:34:22;2.22;;;1.00;;
24681;SDS011;12802;53.390;-2.328;2022-08-21T13:36:57;6.68;;;0.80;;
24681;SDS011;12802;53.390;-2.328;2022-08-21T13:39:25;1.73;;;0.73;;
24681;SDS011;12802;53.390;-2.328;2022-08-21T13:41:52;4.88;;;0.90;;
24681;SDS011;12802;53.390;-2.328;2022-08-21T13:44:30;2.58;;;0.80;;
24681;SDS011;12802;53.390;-2.328;2022-08-21T13:47:02;3.10;;;0.70;;
24681;SDS011;12802;53.390;-2.328;2022-08-21T13:49:31;1.63;;;0.77;;
24681;SDS011;12802;53.390;-2.328;2022-08-21T13:52:00;2.15;;;0.77;;
24681;SDS011;12802;53.390;-2.328;2022-08-21T13:54:33;4.38;;;0.98;;
24681;SDS011;12802;53.390;-2.328;2022-08-21T13:56:59;2.03;;;0.38;;
24681;SDS011;12802;53.390;-2.328;2022-08-21T14:01:53;2.70;;;0.65;;
24681;SDS011;12802;53.390;-2.328;2022-08-21T14:04:26;3.67;;;0.90;;
24681;SDS011;12802;53.390;-2.328;2022-08-21T14:06:57;3.75;;;0.88;;
24681;SDS011;12802;53.390;-2.328;2022-08-21T14:09:40;1.30;;;0.80;;
24681;SDS011;12802;53.390;-2.328;2022-08-21T14:15:03;2.40;;;0.70;;
24681;SDS011;12802;53.390;-2.328;2022-08-21T14:17:31;4.47;;;0.88;;
24681;SDS011;12802;53.390;-2.328;2022-08-21T14:20:07;5.80;;;1.40;;
24681;SDS011;12802;53.390;-2.328;2022-08-21T14:22:50;3.63;;;0.93;;
24681;SDS011;12802;53.390;-2.328;2022-08-21T14:30:17;2.28;;;0.75;;
24681;SDS011;12802;53.390;-2.328;2022-08-21T14:32:52;4.88;;;0.95;;
24681;SDS011;12802;53.390;-2.328;2022-08-21T14:35:18;3.38;;;0.98;;
24681;SDS011;12802;53.390;-2.328;2022-08-21T14:37:46;2.03;;;0.60;;
24681;SDS011;12802;53.390;-2.328;2022-08-21T14:40:15;3.00;;;1.20;;
24681;SDS011;12802;53.390;-2.328;2022-08-21T14:42:42;2.47;;;0.80;;
24681;SDS011;12802;53.390;-2.328;2022-08-21T14:45:19;3.63;;;0.60;;
24681;SDS011;12802;53.390;-2.328;2022-08-21T14:47:51;1.42;;;0.82;;
24681;SDS011;12802;53.390;-2.328;2022-08-21T14:50:17;6.85;;;1.00;;
24681;SDS011;12802;53.390;-2.328;2022-08-21T14:52:44;2.15;;;0.55;;
24681;SDS011;12802;53.390;-2.328;2022-08-21T14:55:10;5.28;;;1.23;;
24681;SDS011;12802;53.390;-2.328;2022-08-21T14:57:41;2.25;;;0.77;;
24681;SDS011;12802;53.390;-2.328;2022-08-21T15:00:16;3.40;;;0.80;;
24681;SDS011;12802;53.390;-2.328;2022-08-21T15:02:44;8.77;;;0.98;;
24681;SDS011;12802;53.390;-2.328;2022-08-21T15:05:13;3.25;;;1.00;;
24681;SDS011;12802;53.390;-2.328;2022-08-21T15:07:40;7.75;;;1.30;;
24681;SDS011;12802;53.390;-2.328;2022-08-21T15:10:06;4.38;;;0.60;;
24681;SDS011;12802;53.390;-2.328;2022-08-21T15:12:33;1.35;;;0.50;;
24681;SDS011;12802;53.390;-2.328;2022-08-21T15:15:00;4.05;;;0.90;;
24681;SDS011;12802;53.390;-2.328;2022-08-21T15:17:26;5.03;;;1.05;;
24681;SDS011;12802;53.390;-2.328;2022-08-21T15:19:52;3.17;;;0.93;;
24681;SDS011;12802;53.390;-2.328;2022-08-21T15:22:18;1.27;;;0.70;;
24681;SDS011;12802;53.390;-2.328;2022-08-21T15:24:44;3.60;;;0.75;;
24681;SDS011;12802;53.390;-2.328;2022-08-21T15:27:10;2.70;;;0.90;;
24681;SDS011;12802;53.390;-2.328;2022-08-21T15:29:37;4.30;;;1.05;;
24681;SDS011;12802;53.390;-2.328;2022-08-21T15:32:23;1.67;;;0.75;;
24681;SDS011;12802;53.390;-2.328;2022-08-21T15:34:53;2.70;;;1.15;;
24681;SDS011;12802;53.390;-2.328;2022-08-21T15:37:21;5.13;;;0.88;;
24681;SDS011;12802;53.390;-2.328;2022-08-21T15:39:48;5.13;;;0.80;;
24681;SDS011;12802;53.390;-2.328;2022-08-21T15:42:14;3.50;;;1.13;;
24681;SDS011;12802;53.390;-2.328;2022-08-21T15:44:41;4.55;;;0.98;;
24681;SDS011;12802;53.390;-2.328;2022-08-21T15:47:09;5.85;;;1.40;;
24681;SDS011;12802;53.390;-2.328;2022-08-21T15:49:39;2.47;;;1.02;;
24681;SDS011;12802;53.390;-2.328;2022-08-21T15:52:07;7.90;;;1.30;;
24681;SDS011;12802;53.390;-2.328;2022-08-21T15:54:33;5.50;;;1.10;;
24681;SDS011;12802;53.390;-2.328;2022-08-21T15:56:59;3.38;;;0.80;;
24681;SDS011;12802;53.390;-2.328;2022-08-21T15:59:25;3.05;;;1.40;;
24681;SDS011;12802;53.390;-2.328;2022-08-21T16:01:52;3.58;;;0.60;;
24681;SDS011;12802;53.390;-2.328;2022-08-21T16:04:22;7.75;;;1.08;;
24681;SDS011;12802;53.390;-2.328;2022-08-21T16:06:52;3.65;;;0.90;;
24681;SDS011;12802;53.390;-2.328;2022-08-21T16:09:19;2.13;;;0.90;;
24681;SDS011;12802;53.390;-2.328;2022-08-21T16:11:45;1.77;;;0.43;;
24681;SDS011;12802;53.390;-2.328;2022-08-21T16:14:12;3.72;;;0.80;;
24681;SDS011;12802;53.390;-2.328;2022-08-21T16:16:39;2.40;;;0.85;;
24681;SDS011;12802;53.390;-2.328;2022-08-21T16:19:05;1.33;;;0.60;;
24681;SDS011;12802;53.390;-2.328;2022-08-21T16:21:33;4.82;;;1.13;;
24681;SDS011;12802;53.390;-2.328;2022-08-21T16:24:00;3.35;;;0.93;;
24681;SDS011;12802;53.390;-2.328;2022-08-21T16:26:25;6.72;;;0.85;;
24681;SDS011;12802;53.390;-2.328;2022-08-21T16:28:53;1.80;;;0.90;;
24681;SDS011;12802;53.390;-2.328;2022-08-21T16:31:22;8.75;;;0.95;;
24681;SDS011;12802;53.390;-2.328;2022-08-21T16:33:49;1.23;;;0.70;;
24681;SDS011;12802;53.390;-2.328;2022-08-21T16:36:18;5.22;;;1.15;;
24681;SDS011;12802;53.390;-2.328;2022-08-21T16:38:45;7.35;;;1.35;;